Terminal Aerodrome Forecast
Issued by NWS Paducah, KY

Home | Current Version | Previous Version | Text Only | Print | Product List | Glossary On
Versions: 1 2 3 4 5 6 7 8 9 10 11 12 13 14 15 16 17 18 19 20 21 22 23 24 25
000
FTUS43 KPAH 041720
TAFPAH
TAF
KPAH 041720Z 0418/0518 05005KT P6SM BKN035
     FM050600 00000KT 4SM BR SCT005
      TEMPO 0508/0512 2SM BR BKN002
     FM051500 VRB04KT 6SM HZ SCT015=

USA.gov is the U.S. government's official web portal to all federal, state and local government web resources and services.